Delray Beach, FL (33444)

8:48 AM EDT on May 29, 2015 (GMT -0400)
Delray Beach | | Change Station
CLOSE
Current Station
Personal Weather Station
Location: Delray Beach, FL
Elevation: 30 ft
Nearby Weather Stations

Elev 30 ft 26.47 °N, 80.09 °W | Updated 16 seconds ago

Overcast
Overcast
75.6 °F
Feels Like 75 °F
N
0.0
Wind Variable Wind from SSE
Gusts 2.2 mph

Today
High -- | Low -- °F
--% Chance of Precip.
Yesterday
High -- | Low -- °F
Precip. -- in
6:28 AM 8:07 PM
Waxing Gibbous, 83% visible
Pressure 30.05 in
Visibility 10.0 miles
Clouds Few 2600 ft
Heat Index 75 °F
Dew Point 72 °F
Humidity 89%
Rainfall 0.09 in
Snow Depth Not available.
UV 1 out of 12
Pollen 4.20 out of 12
Air Quality Not available.
Flu Activity Sporadic
METAR KPMP 291153Z 10007KT 10SM FEW026 26/19 A3004 RMK AO2 SLP174 T02610194 10261 20244 53004

More Conditions Fewer Conditions

Pressure 30.05 in
Visibility 10.0 miles
Clouds Few 2600 ft
Heat Index 75 °F
Dew Point 72 °F
Humidity 89%
Rainfall 0.09 in
Snow Depth Not available.
UV 1 out of 12
Pollen 4.20 out of 12
Air Quality Not available.
Flu Activity Sporadic
METAR KPMP 291153Z 10007KT 10SM FEW026 26/19 A3004 RMK AO2 SLP174 T02610194 10261 20244 53004

More Conditions Fewer Conditions

Nowcast | as of 8:17 am EDT on May 29, 2015

Showers are moving on shore along the Atlantic coast this morning, and will continue to do so through the morning hours. They are moving between 10 and 15 miles per hour to the west and will generally bring up to a quarter of an inch of rain. Coverage is expected to increase this afternoon, and it will be possible for a few of the showers to develop into thunderstorms, mainly this afternoon, west of most of the Southeast Florida Metro areas.

×

10-Day Weather Forecast

Almanac

Astronomy

May. 29, 2015 Rise Set
Actual Time
Civil Twilight
Nautical Twilight
Astronomical Twilight
Moon
Length of Visible Light
Length of Day
Tomorrow will be .
, % of the Moon is Illuminated

Today's Extremes

State Highs State Lows

Community

WunderPhotos

Upload Photos

1,825,249 photos uploaded!

WunderBlogs® & News

Nearby

Air Quality

  Air Quality AQ Index Pollutant
Not available.

Snow Depth

Station Depth Elevation

Earthquake Activity

City Distance Mag. Time & Date
Minimum magnitude displayed is 2.5.

Coastal Water Temperatures

Place Temperature

Stations

Nearby Weather Stations

Station Location Temp. Windchill Dew Point Humidity Wind Precip. Elev Updated Type